createdAt,value
2018-06-10T00:00:33.758Z,9.70
2018-06-10T00:03:02.923Z,9.37
2018-06-10T00:05:32.081Z,9.97
2018-06-10T00:08:01.418Z,10.50
2018-06-10T00:10:30.561Z,11.50
2018-06-10T00:13:00.571Z,12.70
2018-06-10T00:15:29.983Z,11.50
2018-06-10T00:17:59.622Z,14.47
2018-06-10T00:20:29.041Z,12.37
2018-06-10T00:22:58.480Z,9.40
2018-06-10T00:25:27.865Z,11.23
2018-06-10T00:27:57.296Z,9.80
2018-06-10T00:30:26.688Z,10.80
2018-06-10T00:32:56.991Z,14.47
2018-06-10T00:35:26.400Z,10.80
2018-06-10T00:37:55.820Z,12.20
2018-06-10T00:40:25.482Z,11.03
2018-06-10T00:42:55.220Z,12.00
2018-06-10T00:45:24.625Z,10.97
2018-06-10T00:47:54.066Z,11.93
2018-06-10T00:50:23.474Z,17.47
2018-06-10T00:52:52.640Z,13.10
2018-06-10T00:55:22.056Z,14.70
2018-06-10T00:57:51.460Z,10.83
2018-06-10T01:00:20.910Z,10.73
2018-06-10T01:02:50.304Z,14.73
2018-06-10T01:05:19.469Z,12.47
2018-06-10T01:07:48.910Z,10.67
2018-06-10T01:10:18.560Z,10.10
2018-06-10T01:12:47.986Z,15.00
2018-06-10T01:15:17.175Z,11.43
2018-06-10T01:17:46.742Z,14.37
2018-06-10T01:20:15.933Z,14.30
2018-06-10T01:22:45.114Z,12.73
2018-06-10T01:25:14.297Z,13.77
2018-06-10T01:27:43.476Z,13.80
2018-06-10T01:30:12.688Z,11.63
2018-06-10T01:32:41.888Z,13.43
2018-06-10T01:35:11.321Z,14.30
2018-06-10T01:37:40.705Z,13.03
2018-06-10T01:40:10.162Z,13.37
2018-06-10T01:42:39.569Z,12.67
2018-06-10T01:45:09.035Z,13.57
2018-06-10T01:47:38.431Z,15.73
2018-06-10T01:50:07.932Z,12.20
2018-06-10T01:52:37.563Z,13.50
2018-06-10T01:55:07.044Z,10.57
2018-06-10T01:57:44.338Z,16.53
2018-06-10T02:00:13.524Z,13.33
2018-06-10T02:02:42.982Z,13.93
2018-06-10T02:05:17.847Z,11.63
2018-06-10T02:07:48.473Z,11.70
2018-06-10T02:10:17.915Z,13.57
2018-06-10T02:12:47.562Z,11.10
2018-06-10T02:15:19.248Z,11.70
2018-06-10T02:17:49.157Z,13.40
2018-06-10T02:20:18.784Z,11.83
2018-06-10T02:22:48.173Z,12.57
2018-06-10T02:25:18.293Z,9.63
2018-06-10T02:27:47.736Z,9.67
2018-06-10T02:30:17.183Z,10.23
2018-06-10T02:32:49.537Z,15.50
2018-06-10T02:35:18.919Z,10.10
2018-06-10T02:37:56.870Z,10.03
2018-06-10T02:40:26.296Z,14.20
2018-06-10T02:42:55.472Z,10.43
2018-06-10T02:45:24.911Z,10.40
2018-06-10T02:47:54.297Z,10.40
2018-06-10T02:50:23.710Z,12.43
2018-06-10T02:52:53.361Z,14.33
2018-06-10T02:55:23.028Z,11.07
2018-06-10T02:57:52.639Z,12.20
2018-06-10T03:00:23.280Z,10.17
2018-06-10T03:02:52.731Z,10.30
2018-06-10T03:05:22.113Z,9.93
2018-06-10T03:07:51.554Z,9.77
2018-06-10T03:10:21.037Z,13.90
2018-06-10T03:12:50.445Z,10.20
2018-06-10T03:15:19.616Z,14.20
2018-06-10T03:17:49.098Z,11.83
2018-06-10T03:20:18.711Z,11.73
2018-06-10T03:22:48.147Z,11.40
2018-06-10T03:25:17.342Z,8.43
2018-06-10T03:27:46.750Z,10.80
2018-06-10T03:30:16.394Z,11.27
2018-06-10T03:32:45.850Z,13.70
2018-06-10T03:35:14.998Z,9.57
2018-06-10T03:37:44.243Z,9.40
2018-06-10T03:40:13.370Z,9.30
2018-06-10T03:42:42.547Z,9.90
2018-06-10T03:45:11.982Z,10.07
2018-06-10T03:47:41.372Z,10.60
2018-06-10T03:50:10.820Z,11.13
2018-06-10T03:52:40.224Z,10.43
2018-06-10T03:55:09.414Z,14.67
2018-06-10T03:57:38.838Z,9.13
2018-06-10T04:00:08.962Z,12.43
2018-06-10T04:02:38.580Z,11.70
2018-06-10T04:05:08.228Z,8.53
2018-06-10T04:07:37.858Z,8.00
2018-06-10T04:10:07.489Z,9.33
2018-06-10T04:12:36.883Z,12.17
2018-06-10T04:15:06.905Z,10.07
2018-06-10T04:17:36.335Z,10.07
2018-06-10T04:20:05.506Z,9.30
2018-06-10T04:22:34.730Z,10.27
2018-06-10T04:25:03.847Z,9.80
2018-06-10T04:27:33.468Z,8.83
2018-06-10T04:30:02.876Z,10.13
2018-06-10T04:32:32.325Z,9.07
2018-06-10T04:35:01.943Z,8.80
2018-06-10T04:37:33.414Z,8.33
2018-06-10T04:40:02.582Z,7.70
2018-06-10T04:42:31.828Z,9.60
2018-06-10T04:45:00.964Z,8.23
2018-06-10T04:47:30.166Z,8.43
2018-06-10T04:49:59.580Z,8.00
2018-06-10T04:52:29.261Z,9.63
2018-06-10T04:54:58.640Z,7.67
2018-06-10T04:57:27.810Z,7.60
2018-06-10T04:59:57.204Z,8.50
2018-06-10T05:02:26.574Z,7.33
2018-06-10T05:04:55.776Z,8.63
2018-06-10T05:07:24.969Z,7.20
2018-06-10T05:09:54.251Z,7.80
2018-06-10T05:12:23.441Z,7.70
2018-06-10T05:14:52.845Z,11.40
2018-06-10T05:17:22.232Z,7.80
2018-06-10T05:19:51.492Z,9.30
2018-06-10T05:22:20.822Z,9.03
2018-06-10T05:24:50.202Z,9.10
2018-06-10T05:27:19.612Z,10.33
2018-06-10T05:29:49.254Z,10.93
2018-06-10T05:32:18.650Z,12.83
2018-06-10T05:34:47.856Z,11.00
2018-06-10T05:37:17.240Z,10.00
2018-06-10T05:39:46.666Z,10.53
2018-06-10T05:42:15.854Z,8.80
2018-06-10T05:44:45.154Z,11.47
2018-06-10T05:47:14.866Z,9.23
2018-06-10T05:49:44.296Z,12.33
2018-06-10T05:52:13.698Z,11.10
2018-06-10T05:54:42.962Z,7.40
2018-06-10T05:57:12.353Z,9.77
2018-06-10T05:59:41.760Z,11.87
2018-06-10T06:02:10.962Z,10.70
2018-06-10T06:04:40.671Z,10.00
2018-06-10T06:07:10.278Z,9.00
2018-06-10T06:09:39.657Z,9.63
2018-06-10T06:12:09.098Z,8.60
2018-06-10T06:14:38.500Z,8.43
2018-06-10T06:17:07.669Z,9.63
2018-06-10T06:19:37.168Z,13.07
2018-06-10T06:22:06.555Z,11.07
2018-06-10T06:24:35.728Z,9.40
2018-06-10T06:27:05.180Z,9.43
2018-06-10T06:29:34.563Z,9.53
2018-06-10T06:32:03.735Z,14.50
2018-06-10T06:34:32.914Z,13.30
2018-06-10T06:37:02.418Z,13.83
2018-06-10T06:39:31.848Z,11.13
2018-06-10T06:42:01.266Z,13.50
2018-06-10T06:44:31.776Z,12.47
2018-06-10T06:47:01.786Z,11.70
2018-06-10T06:49:31.170Z,14.80
2018-06-10T06:52:00.598Z,17.43
2018-06-10T06:54:30.256Z,10.20
2018-06-10T06:56:59.642Z,11.40
2018-06-10T06:59:28.846Z,19.40
2018-06-10T07:01:58.256Z,11.50
2018-06-10T07:04:27.661Z,10.90
2018-06-10T07:06:56.935Z,9.27
2018-06-10T07:09:26.466Z,10.90
2018-06-10T07:11:55.849Z,11.13
2018-06-10T07:14:25.296Z,14.10
2018-06-10T07:16:54.934Z,12.17
2018-06-10T07:19:24.578Z,11.53
2018-06-10T07:21:53.982Z,12.10
2018-06-10T07:24:23.584Z,11.83
2018-06-10T07:26:53.016Z,13.60
2018-06-10T07:29:22.513Z,12.10
2018-06-10T07:31:52.552Z,13.37
2018-06-10T07:34:22.172Z,11.23
2018-06-10T07:36:52.618Z,10.63
2018-06-10T07:39:22.204Z,14.23
2018-06-10T07:41:51.425Z,11.17
2018-06-10T07:44:20.814Z,13.07
2018-06-10T07:46:50.316Z,12.40
2018-06-10T07:49:19.478Z,10.90
2018-06-10T07:51:48.710Z,10.40
2018-06-10T07:54:18.413Z,11.50
2018-06-10T07:56:47.654Z,11.17
2018-06-10T07:59:16.831Z,10.17
2018-06-10T08:01:46.284Z,12.77
2018-06-10T08:04:15.929Z,10.53
2018-06-10T08:06:45.584Z,14.20
2018-06-10T08:09:15.226Z,11.23
2018-06-10T08:11:44.642Z,11.00
2018-06-10T08:14:14.162Z,14.03
2018-06-10T08:16:43.609Z,12.80
2018-06-10T08:19:13.016Z,13.03
2018-06-10T08:21:42.434Z,13.93
2018-06-10T08:24:11.676Z,15.23
2018-06-10T08:26:40.899Z,14.43
2018-06-10T08:29:10.089Z,12.10
2018-06-10T08:31:39.268Z,13.70
2018-06-10T08:34:08.426Z,15.77
2018-06-10T08:36:37.640Z,15.03
2018-06-10T08:39:08.034Z,18.00
2018-06-10T08:41:37.568Z,15.53
2018-06-10T08:44:07.262Z,15.00
2018-06-10T08:46:36.692Z,17.73
2018-06-10T08:49:05.978Z,13.60
2018-06-10T08:51:35.157Z,15.17
2018-06-10T08:54:04.618Z,12.67
2018-06-10T08:56:34.270Z,17.07
2018-06-10T08:59:03.756Z,12.93
2018-06-10T09:01:33.053Z,17.00
2018-06-10T09:04:02.228Z,15.37
2018-06-10T09:06:31.738Z,15.37
2018-06-10T09:09:00.926Z,13.43
2018-06-10T09:11:30.344Z,16.10
2018-06-10T09:13:59.772Z,11.40
2018-06-10T09:16:29.080Z,10.77
2018-06-10T09:18:58.312Z,12.03
2018-06-10T09:21:27.550Z,14.43
2018-06-10T09:23:56.752Z,9.80
2018-06-10T09:26:25.988Z,9.97
2018-06-10T09:28:55.241Z,14.37
2018-06-10T09:31:24.700Z,10.47
2018-06-10T09:33:53.900Z,10.07
2018-06-10T09:36:23.089Z,9.60
2018-06-10T09:38:52.885Z,10.40
2018-06-10T09:41:22.362Z,11.97
2018-06-10T09:43:52.002Z,10.30
2018-06-10T09:46:21.726Z,11.57
2018-06-10T09:48:50.978Z,11.30
2018-06-10T09:51:20.401Z,9.40
2018-06-10T09:53:50.090Z,10.60
2018-06-10T09:56:19.494Z,10.70
2018-06-10T09:58:48.700Z,10.53
2018-06-10T10:01:17.870Z,9.30
2018-06-10T10:03:47.306Z,10.97
2018-06-10T10:06:16.740Z,7.70
2018-06-10T10:08:46.153Z,7.90
2018-06-10T10:11:15.580Z,9.20
2018-06-10T10:13:45.087Z,9.03
2018-06-10T10:16:14.580Z,9.40
2018-06-10T10:18:44.012Z,10.33
2018-06-10T10:21:13.417Z,8.90
2018-06-10T10:23:42.613Z,8.80
2018-06-10T10:26:12.087Z,7.60
2018-06-10T10:28:41.598Z,7.30
2018-06-10T10:31:10.794Z,10.10
2018-06-10T10:33:40.230Z,7.47
2018-06-10T10:36:09.870Z,9.30
2018-06-10T10:38:39.932Z,8.10
2018-06-10T10:41:09.456Z,8.70
2018-06-10T10:43:38.836Z,7.47
2018-06-10T10:46:07.980Z,9.70
2018-06-10T10:48:37.164Z,7.97
2018-06-10T10:51:06.759Z,10.23
2018-06-10T10:53:35.962Z,7.83
2018-06-10T10:56:05.144Z,7.80
2018-06-10T10:58:34.302Z,8.10
2018-06-10T11:01:03.751Z,7.90
2018-06-10T11:03:33.180Z,8.73
2018-06-10T11:06:02.608Z,8.53
2018-06-10T11:08:32.238Z,7.93
2018-06-10T11:11:01.901Z,7.20
2018-06-10T11:13:31.556Z,9.30
2018-06-10T11:16:01.200Z,7.10
2018-06-10T11:18:30.678Z,7.97
2018-06-10T11:21:00.081Z,7.50
2018-06-10T11:23:29.714Z,7.50
2018-06-10T11:25:59.338Z,7.17
2018-06-10T11:28:28.760Z,7.73
2018-06-10T11:30:58.169Z,8.13
2018-06-10T11:33:27.574Z,7.43
2018-06-10T11:35:58.070Z,6.80
2018-06-10T11:38:27.724Z,11.17
2018-06-10T11:40:57.122Z,6.53
2018-06-10T11:43:26.596Z,8.80
2018-06-10T11:45:56.249Z,6.97
2018-06-10T11:48:25.603Z,8.57
2018-06-10T11:50:55.034Z,6.67
2018-06-10T11:53:24.449Z,7.30
2018-06-10T11:55:53.863Z,7.93
2018-06-10T11:58:23.239Z,7.67
2018-06-10T12:00:52.575Z,7.87
2018-06-10T12:03:22.520Z,8.73
2018-06-10T12:05:51.975Z,9.20
2018-06-10T12:08:21.367Z,8.20
2018-06-10T12:10:50.582Z,8.87
2018-06-10T12:13:19.803Z,7.53
2018-06-10T12:15:51.283Z,7.67
2018-06-10T12:18:21.025Z,9.87
2018-06-10T12:20:50.406Z,8.57
2018-06-10T12:23:19.834Z,8.43
2018-06-10T12:25:49.231Z,8.83
2018-06-10T12:28:18.663Z,8.13
2018-06-10T12:30:48.134Z,8.70
2018-06-10T12:33:17.296Z,12.27
2018-06-10T12:35:46.529Z,8.17
2018-06-10T12:38:15.949Z,9.67
2018-06-10T12:40:45.578Z,9.57
2018-06-10T12:43:15.263Z,8.50
2018-06-10T12:45:44.655Z,8.70
2018-06-10T12:48:14.087Z,7.80
2018-06-10T12:50:43.525Z,7.10
2018-06-10T12:53:12.722Z,9.40
2018-06-10T12:55:41.905Z,6.50
2018-06-10T12:58:11.093Z,5.70
2018-06-10T13:00:40.274Z,5.93
2018-06-10T13:03:10.279Z,6.30
2018-06-10T13:05:39.649Z,7.10
2018-06-10T13:08:09.164Z,5.93
2018-06-10T13:10:38.556Z,7.57
2018-06-10T13:13:08.174Z,4.43
2018-06-10T13:15:38.298Z,5.93
2018-06-10T13:18:07.722Z,4.87
2018-06-10T13:20:37.132Z,6.30
2018-06-10T13:23:06.488Z,5.93
2018-06-10T13:25:35.674Z,5.50
2018-06-10T13:28:04.857Z,7.40
2018-06-10T13:30:34.036Z,4.77
2018-06-10T13:33:03.256Z,5.60
2018-06-10T13:35:33.288Z,5.10
2018-06-10T13:38:02.700Z,4.90
2018-06-10T13:40:32.255Z,4.63
2018-06-10T13:43:01.627Z,5.00
2018-06-10T13:45:32.388Z,5.00
2018-06-10T13:48:02.050Z,6.00
2018-06-10T13:50:31.456Z,5.50
2018-06-10T13:53:00.668Z,5.87
2018-06-10T13:55:30.162Z,5.50
2018-06-10T13:57:59.608Z,4.50
2018-06-10T14:00:29.048Z,3.90
2018-06-10T14:02:58.758Z,4.30
2018-06-10T14:05:28.138Z,6.50
2018-06-10T14:07:57.580Z,5.33
2018-06-10T14:10:26.961Z,4.57
2018-06-10T14:12:56.389Z,4.17
2018-06-10T14:15:26.035Z,4.90
2018-06-10T14:17:55.694Z,4.50
2018-06-10T14:20:25.364Z,4.83
2018-06-10T14:22:54.973Z,5.37
2018-06-10T14:25:24.370Z,4.67
2018-06-10T14:27:53.828Z,6.10
2018-06-10T14:30:23.239Z,4.60
2018-06-10T14:32:52.425Z,4.00
2018-06-10T14:35:21.883Z,5.00
2018-06-10T14:37:51.558Z,10.40
2018-06-10T14:40:21.164Z,5.23
2018-06-10T14:42:50.590Z,4.93
2018-06-10T14:45:19.744Z,5.10
2018-06-10T14:47:49.229Z,4.63
2018-06-10T14:50:18.669Z,4.50
2018-06-10T14:52:47.845Z,5.50
2018-06-10T14:55:17.038Z,5.13
2018-06-10T14:57:46.509Z,5.13
2018-06-10T15:00:16.205Z,8.00
2018-06-10T15:02:45.608Z,7.93
2018-06-10T15:05:15.050Z,5.17
2018-06-10T15:07:44.744Z,5.30
2018-06-10T15:10:14.400Z,5.20
2018-06-10T15:12:43.792Z,5.37
2018-06-10T15:15:13.342Z,5.47
2018-06-10T15:17:42.958Z,8.50
2018-06-10T15:20:12.374Z,5.77
2018-06-10T15:22:41.652Z,6.20
2018-06-10T15:25:11.144Z,6.23
2018-06-10T15:27:40.776Z,5.40
2018-06-10T15:30:10.200Z,10.07
2018-06-10T15:32:39.714Z,5.13
2018-06-10T15:35:09.369Z,5.80
2018-06-10T15:37:38.804Z,5.80
2018-06-10T15:40:08.280Z,5.67
2018-06-10T15:42:37.679Z,5.40
2018-06-10T15:45:07.502Z,7.00
2018-06-10T15:47:36.975Z,6.20
2018-06-10T15:50:06.621Z,5.83
2018-06-10T15:52:36.042Z,5.83
2018-06-10T15:55:05.224Z,7.27
2018-06-10T15:57:34.602Z,6.63
2018-06-10T16:00:04.392Z,6.97
2018-06-10T16:02:33.587Z,5.50
2018-06-10T16:05:03.054Z,5.53
2018-06-10T16:07:32.479Z,6.57
2018-06-10T16:10:02.855Z,5.67
2018-06-10T16:12:32.344Z,6.23
2018-06-10T16:15:01.544Z,6.90
2018-06-10T16:17:30.994Z,6.87
2018-06-10T16:20:00.411Z,5.50
2018-06-10T16:22:29.911Z,7.47
2018-06-10T16:24:59.310Z,5.70
2018-06-10T16:27:28.753Z,6.67
2018-06-10T16:29:58.506Z,6.77
2018-06-10T16:32:28.180Z,6.60
2018-06-10T16:34:57.836Z,6.57
2018-06-10T16:37:27.261Z,6.50
2018-06-10T16:39:56.734Z,6.33
2018-06-10T16:42:26.169Z,6.57
2018-06-10T16:44:55.366Z,5.93
2018-06-10T16:47:24.794Z,6.60
2018-06-10T16:49:54.233Z,8.07
2018-06-10T16:52:23.466Z,6.53
2018-06-10T16:54:52.986Z,8.33
2018-06-10T16:57:22.376Z,7.20
2018-06-10T16:59:51.563Z,6.90
2018-06-10T17:02:21.040Z,7.03
2018-06-10T17:04:50.692Z,8.50
2018-06-10T17:07:19.898Z,7.73
2018-06-10T17:09:49.474Z,7.50
2018-06-10T17:12:20.342Z,7.97
2018-06-10T17:14:49.951Z,6.90
2018-06-10T17:17:19.428Z,8.97
2018-06-10T17:19:49.119Z,6.40
2018-06-10T17:22:18.777Z,8.07
2018-06-10T17:24:48.464Z,6.93
2018-06-10T17:27:18.039Z,6.90
2018-06-10T17:29:47.463Z,6.83
2018-06-10T17:32:16.864Z,6.57
2018-06-10T17:34:46.130Z,7.60
2018-06-10T17:37:15.563Z,6.57
2018-06-10T17:39:45.271Z,6.80
2018-06-10T17:42:14.689Z,7.73
2018-06-10T17:44:44.153Z,6.23
2018-06-10T17:47:13.559Z,7.10
2018-06-10T17:49:42.767Z,7.77
2018-06-10T17:52:12.051Z,7.40
2018-06-10T17:54:41.487Z,7.73
2018-06-10T17:57:11.176Z,8.03
2018-06-10T17:59:40.595Z,7.50
2018-06-10T18:02:10.065Z,6.70
2018-06-10T18:04:39.773Z,7.60
2018-06-10T18:07:10.249Z,6.43
2018-06-10T18:09:39.700Z,6.50
2018-06-10T18:12:08.937Z,7.30
2018-06-10T18:14:38.155Z,7.67
2018-06-10T18:17:07.416Z,7.80
2018-06-10T18:19:37.141Z,8.03
2018-06-10T18:22:06.541Z,6.73
2018-06-10T18:24:35.745Z,6.50
2018-06-10T18:27:04.939Z,9.27
2018-06-10T18:29:34.163Z,6.23
2018-06-10T18:32:03.403Z,7.87
2018-06-10T18:34:32.581Z,6.37
2018-06-10T18:37:02.002Z,7.40
2018-06-10T18:39:31.645Z,8.17
2018-06-10T18:42:01.082Z,6.20
2018-06-10T18:44:30.307Z,5.97
2018-06-10T18:46:59.469Z,6.20
2018-06-10T18:49:28.661Z,6.70
2018-06-10T18:51:57.881Z,8.50
2018-06-10T18:54:27.061Z,6.50
2018-06-10T18:56:56.245Z,5.90
2018-06-10T18:59:25.445Z,5.70
2018-06-10T19:01:54.636Z,7.67
2018-06-10T19:04:23.833Z,5.70
2018-06-10T19:06:53.035Z,6.00
2018-06-10T19:09:22.488Z,6.77
2018-06-10T19:11:51.882Z,5.93
2018-06-10T19:14:21.061Z,5.03
2018-06-10T19:16:50.281Z,5.77
2018-06-10T19:19:19.465Z,7.50
2018-06-10T19:21:48.900Z,5.40
2018-06-10T19:24:18.293Z,6.20
2018-06-10T19:26:47.495Z,5.47
2018-06-10T19:29:16.763Z,5.03
2018-06-10T19:31:45.933Z,5.27
2018-06-10T19:34:15.385Z,4.70
2018-06-10T19:36:44.790Z,3.73
2018-06-10T19:39:15.249Z,4.70
2018-06-10T19:41:44.408Z,4.60
2018-06-10T19:44:13.921Z,4.30
2018-06-10T19:46:43.642Z,4.83
2018-06-10T19:49:13.114Z,5.03
2018-06-10T19:51:42.586Z,4.00
2018-06-10T19:54:12.355Z,5.57
2018-06-10T19:56:41.996Z,4.07
2018-06-10T19:59:11.393Z,4.40
2018-06-10T20:01:40.588Z,4.50
2018-06-10T20:04:10.002Z,3.60
2018-06-10T20:06:39.460Z,4.30
2018-06-10T20:09:08.937Z,3.90
2018-06-10T20:11:38.578Z,4.70
2018-06-10T20:14:08.018Z,4.00
2018-06-10T20:16:37.265Z,4.63
2018-06-10T20:19:06.464Z,5.20
2018-06-10T20:21:35.898Z,6.47
2018-06-10T20:24:05.301Z,3.93
2018-06-10T20:26:34.475Z,4.60
2018-06-10T20:29:03.911Z,4.73
2018-06-10T20:31:33.329Z,4.80
2018-06-10T20:34:02.760Z,4.53
2018-06-10T20:36:32.231Z,5.00
2018-06-10T20:39:01.376Z,5.00
2018-06-10T20:41:30.884Z,4.50
2018-06-10T20:44:00.265Z,8.90
2018-06-10T20:46:30.611Z,4.73
2018-06-10T20:49:00.007Z,4.27
2018-06-10T20:51:29.499Z,4.93
2018-06-10T20:53:58.883Z,3.20
2018-06-10T20:56:28.409Z,3.50
2018-06-10T20:58:57.828Z,3.33
2018-06-10T21:01:28.121Z,5.00
2018-06-10T21:03:57.527Z,4.40
2018-06-10T21:06:26.707Z,4.67
2018-06-10T21:08:56.152Z,3.37
2018-06-10T21:11:25.533Z,3.60
2018-06-10T21:13:54.730Z,3.17
2018-06-10T21:16:23.923Z,5.10
2018-06-10T21:18:53.328Z,3.60
2018-06-10T21:21:22.795Z,3.47
2018-06-10T21:23:52.217Z,4.53
2018-06-10T21:26:21.955Z,6.17
2018-06-10T21:28:51.559Z,3.27
2018-06-10T21:31:21.027Z,3.20
2018-06-10T21:33:50.425Z,4.60
2018-06-10T21:36:19.857Z,4.17
2018-06-10T21:38:49.241Z,3.67
2018-06-10T21:41:18.421Z,3.07
2018-06-10T21:43:47.583Z,4.47
2018-06-10T21:46:17.319Z,3.40
2018-06-10T21:48:46.734Z,3.60
2018-06-10T21:51:15.885Z,3.27
2018-06-10T21:53:45.095Z,3.93
2018-06-10T21:56:14.274Z,4.00
2018-06-10T21:58:43.685Z,3.50
2018-06-10T22:01:13.101Z,3.77
2018-06-10T22:03:42.276Z,4.00
2018-06-10T22:06:11.467Z,3.97
2018-06-10T22:08:40.633Z,3.50
2018-06-10T22:11:10.091Z,4.37
2018-06-10T22:13:39.482Z,3.23
2018-06-10T22:16:08.689Z,3.97
2018-06-10T22:18:37.866Z,4.33
2018-06-10T22:21:07.340Z,3.90
2018-06-10T22:23:36.691Z,5.13
2018-06-10T22:26:05.952Z,4.50
2018-06-10T22:28:35.103Z,5.90
2018-06-10T22:31:04.639Z,6.43
2018-06-10T22:33:34.031Z,4.33
2018-06-10T22:36:03.212Z,4.30
2018-06-10T22:38:34.819Z,4.67
2018-06-10T22:41:04.239Z,4.67
2018-06-10T22:43:33.901Z,5.33
2018-06-10T22:46:03.552Z,4.17
2018-06-10T22:48:32.939Z,5.23
2018-06-10T22:51:02.353Z,5.47
2018-06-10T22:54:03.565Z,8.77
2018-06-10T22:56:32.755Z,5.20
2018-06-10T22:59:01.945Z,5.77
2018-06-10T23:01:31.163Z,4.30
2018-06-10T23:04:00.345Z,5.17
2018-06-10T23:06:29.511Z,5.40
2018-06-10T23:08:58.703Z,8.13
2018-06-10T23:11:28.168Z,4.67
2018-06-10T23:13:57.569Z,4.10
2018-06-10T23:16:26.773Z,4.10
2018-06-10T23:18:55.971Z,7.73
2018-06-10T23:21:25.166Z,3.50
2018-06-10T23:23:54.350Z,3.43
2018-06-10T23:26:23.759Z,4.00
2018-06-10T23:28:53.394Z,3.73
2018-06-10T23:31:23.923Z,4.67
2018-06-10T23:33:53.319Z,4.90
2018-06-10T23:36:22.688Z,4.80
2018-06-10T23:38:52.183Z,5.23
2018-06-10T23:41:21.568Z,3.60
2018-06-10T23:43:50.768Z,7.07
2018-06-10T23:46:20.230Z,4.00
2018-06-10T23:48:49.599Z,4.93
2018-06-10T23:51:19.022Z,4.50
2018-06-10T23:53:48.418Z,3.77
2018-06-10T23:56:17.590Z,4.77
2018-06-10T23:58:47.001Z,4.70
